sensor_id;sensor_type;location;lat;lon;timestamp;pressure;altitude;pressure_sealevel;temperature;humidity
75039;BME280;63609;49.992;14.512;2023-10-08T00:03:31;98246.13;;;14.41;54.43
75039;BME280;63609;49.992;14.512;2023-10-08T00:06:04;98234.84;;;14.54;53.90
75039;BME280;63609;49.992;14.512;2023-10-08T00:08:41;98236.22;;;14.42;54.10
75039;BME280;63609;49.992;14.512;2023-10-08T00:11:11;98243.44;;;14.41;54.03
75039;BME280;63609;49.992;14.512;2023-10-08T00:13:38;98235.66;;;14.71;53.54
75039;BME280;63609;49.992;14.512;2023-10-08T00:16:09;98234.34;;;14.51;53.78
75039;BME280;63609;49.992;14.512;2023-10-08T00:18:38;98234.84;;;14.54;53.91
75039;BME280;63609;49.992;14.512;2023-10-08T00:21:07;98233.19;;;14.45;54.15
75039;BME280;63609;49.992;14.512;2023-10-08T00:23:38;98209.00;;;14.53;53.65
75039;BME280;63609;49.992;14.512;2023-10-08T00:26:31;98218.19;;;14.59;53.55
75039;BME280;63609;49.992;14.512;2023-10-08T00:29:09;98225.94;;;14.54;53.66
75039;BME280;63609;49.992;14.512;2023-10-08T00:31:49;98238.22;;;14.48;53.94
75039;BME280;63609;49.992;14.512;2023-10-08T00:34:18;98234.72;;;14.39;53.94
75039;BME280;63609;49.992;14.512;2023-10-08T00:36:48;98223.47;;;14.44;53.71
75039;BME280;63609;49.992;14.512;2023-10-08T00:39:17;98235.91;;;14.37;54.62
75039;BME280;63609;49.992;14.512;2023-10-08T00:41:50;98234.66;;;14.56;53.73
75039;BME280;63609;49.992;14.512;2023-10-08T00:44:20;98231.38;;;14.29;54.44
75039;BME280;63609;49.992;14.512;2023-10-08T00:46:56;98232.47;;;14.59;53.73
75039;BME280;63609;49.992;14.512;2023-10-08T00:49:29;98232.81;;;14.56;53.82
75039;BME280;63609;49.992;14.512;2023-10-08T00:52:15;98233.31;;;14.60;53.63
75039;BME280;63609;49.992;14.512;2023-10-08T00:54:42;98227.25;;;14.66;53.36
75039;BME280;63609;49.992;14.512;2023-10-08T00:57:25;98228.66;;;14.45;53.75
75039;BME280;63609;49.992;14.512;2023-10-08T00:59:53;98225.13;;;14.45;54.02
75039;BME280;63609;49.992;14.512;2023-10-08T01:02:25;98220.41;;;14.55;53.92
75039;BME280;63609;49.992;14.512;2023-10-08T01:04:57;98226.13;;;14.52;53.67
75039;BME280;63609;49.992;14.512;2023-10-08T01:07:25;98213.56;;;14.84;53.00
75039;BME280;63609;49.992;14.512;2023-10-08T01:09:54;98215.56;;;14.51;53.94
75039;BME280;63609;49.992;14.512;2023-10-08T01:12:26;98220.13;;;14.42;54.06
75039;BME280;63609;49.992;14.512;2023-10-08T01:15:03;98200.94;;;14.53;53.75
75039;BME280;63609;49.992;14.512;2023-10-08T01:17:42;98205.56;;;14.75;53.15
75039;BME280;63609;49.992;14.512;2023-10-08T01:20:20;98210.53;;;14.87;52.84
75039;BME280;63609;49.992;14.512;2023-10-08T01:23:10;98213.66;;;14.59;53.50
75039;BME280;63609;49.992;14.512;2023-10-08T01:25:40;98208.13;;;14.61;53.64
75039;BME280;63609;49.992;14.512;2023-10-08T01:28:11;98207.44;;;14.59;53.47
75039;BME280;63609;49.992;14.512;2023-10-08T01:30:46;98204.06;;;14.73;52.91
75039;BME280;63609;49.992;14.512;2023-10-08T01:33:14;98209.69;;;14.47;53.88
75039;BME280;63609;49.992;14.512;2023-10-08T01:35:44;98206.78;;;14.57;53.81
75039;BME280;63609;49.992;14.512;2023-10-08T01:38:11;98206.22;;;14.77;52.92
75039;BME280;63609;49.992;14.512;2023-10-08T01:40:41;98205.13;;;14.56;53.57
75039;BME280;63609;49.992;14.512;2023-10-08T01:43:12;98204.94;;;14.57;53.69
75039;BME280;63609;49.992;14.512;2023-10-08T01:45:40;98193.22;;;14.50;53.90
75039;BME280;63609;49.992;14.512;2023-10-08T01:48:09;98180.22;;;14.62;53.58
75039;BME280;63609;49.992;14.512;2023-10-08T01:50:37;98195.81;;;14.74;53.31
75039;BME280;63609;49.992;14.512;2023-10-08T01:53:05;98189.66;;;14.58;53.59
75039;BME280;63609;49.992;14.512;2023-10-08T01:55:37;98191.69;;;14.56;53.52
75039;BME280;63609;49.992;14.512;2023-10-08T01:58:18;98185.66;;;14.54;53.68
75039;BME280;63609;49.992;14.512;2023-10-08T02:00:46;98179.97;;;14.49;53.88
75039;BME280;63609;49.992;14.512;2023-10-08T02:03:15;98198.44;;;14.35;54.27
75039;BME280;63609;49.992;14.512;2023-10-08T02:05:53;98198.25;;;14.53;53.73
75039;BME280;63609;49.992;14.512;2023-10-08T02:08:20;98208.84;;;14.46;54.37
75039;BME280;63609;49.992;14.512;2023-10-08T02:10:47;98193.97;;;14.20;54.87
75039;BME280;63609;49.992;14.512;2023-10-08T02:13:15;98186.06;;;14.26;54.69
75039;BME280;63609;49.992;14.512;2023-10-08T02:15:44;98188.78;;;14.73;53.49
75039;BME280;63609;49.992;14.512;2023-10-08T02:18:13;98190.03;;;14.46;54.09
75039;BME280;63609;49.992;14.512;2023-10-08T02:20:40;98198.66;;;14.26;54.81
75039;BME280;63609;49.992;14.512;2023-10-08T02:23:08;98187.44;;;14.06;55.49
75039;BME280;63609;49.992;14.512;2023-10-08T02:25:40;98187.38;;;14.38;54.55
75039;BME280;63609;49.992;14.512;2023-10-08T02:28:07;98181.69;;;14.33;54.65
75039;BME280;63609;49.992;14.512;2023-10-08T02:30:49;98190.44;;;14.19;55.12
75039;BME280;63609;49.992;14.512;2023-10-08T02:33:16;98188.78;;;14.10;55.60
75039;BME280;63609;49.992;14.512;2023-10-08T02:35:45;98177.81;;;14.44;54.47
75039;BME280;63609;49.992;14.512;2023-10-08T02:38:18;98183.06;;;13.97;55.76
75039;BME280;63609;49.992;14.512;2023-10-08T02:40:47;98167.28;;;14.18;55.06
75039;BME280;63609;49.992;14.512;2023-10-08T02:43:16;98174.47;;;14.26;55.29
75039;BME280;63609;49.992;14.512;2023-10-08T02:45:44;98178.34;;;14.23;54.79
75039;BME280;63609;49.992;14.512;2023-10-08T02:48:17;98182.19;;;14.37;55.15
75039;BME280;63609;49.992;14.512;2023-10-08T02:50:45;98185.56;;;14.23;55.38
75039;BME280;63609;49.992;14.512;2023-10-08T02:53:13;98171.00;;;14.17;55.84
75039;BME280;63609;49.992;14.512;2023-10-08T02:55:46;98175.31;;;14.26;55.14
75039;BME280;63609;49.992;14.512;2023-10-08T02:58:14;98174.50;;;14.18;55.72
75039;BME280;63609;49.992;14.512;2023-10-08T03:00:43;98158.84;;;14.37;55.12
75039;BME280;63609;49.992;14.512;2023-10-08T03:03:10;98147.00;;;14.15;55.84
75039;BME280;63609;49.992;14.512;2023-10-08T03:05:47;98150.88;;;14.13;55.94
75039;BME280;63609;49.992;14.512;2023-10-08T03:08:15;98160.94;;;13.95;56.72
75039;BME280;63609;49.992;14.512;2023-10-08T03:10:53;98156.59;;;13.85;56.70
75039;BME280;63609;49.992;14.512;2023-10-08T03:13:24;98172.59;;;14.42;55.42
75039;BME280;63609;49.992;14.512;2023-10-08T03:15:53;98170.66;;;13.96;56.78
75039;BME280;63609;49.992;14.512;2023-10-08T03:18:27;98178.53;;;14.22;56.51
75039;BME280;63609;49.992;14.512;2023-10-08T03:21:06;98177.84;;;14.03;57.25
75039;BME280;63609;49.992;14.512;2023-10-08T03:24:03;98191.97;;;14.05;57.00
75039;BME280;63609;49.992;14.512;2023-10-08T03:26:39;98203.19;;;14.09;57.21
75039;BME280;63609;49.992;14.512;2023-10-08T03:29:07;98205.56;;;14.04;57.33
75039;BME280;63609;49.992;14.512;2023-10-08T03:31:44;98210.41;;;14.00;57.54
75039;BME280;63609;49.992;14.512;2023-10-08T03:34:18;98212.09;;;14.09;57.35
75039;BME280;63609;49.992;14.512;2023-10-08T03:36:47;98215.47;;;14.20;57.31
75039;BME280;63609;49.992;14.512;2023-10-08T03:39:17;98220.13;;;14.26;57.07
75039;BME280;63609;49.992;14.512;2023-10-08T03:41:50;98218.25;;;14.34;56.97
75039;BME280;63609;49.992;14.512;2023-10-08T03:44:33;98206.38;;;14.21;57.45
75039;BME280;63609;49.992;14.512;2023-10-08T03:47:04;98191.94;;;14.38;56.84
75039;BME280;63609;49.992;14.512;2023-10-08T03:49:38;98191.47;;;14.18;57.29
75039;BME280;63609;49.992;14.512;2023-10-08T03:52:12;98201.97;;;14.36;56.80
75039;BME280;63609;49.992;14.512;2023-10-08T03:54:42;98202.66;;;14.38;56.74
75039;BME280;63609;49.992;14.512;2023-10-08T03:57:19;98194.13;;;14.26;57.36
75039;BME280;63609;49.992;14.512;2023-10-08T03:59:52;98197.81;;;14.25;57.41
75039;BME280;63609;49.992;14.512;2023-10-08T04:02:26;98185.72;;;14.29;57.29
75039;BME280;63609;49.992;14.512;2023-10-08T04:05:07;98201.53;;;14.16;58.03
75039;BME280;63609;49.992;14.512;2023-10-08T04:07:46;98198.78;;;14.32;57.54
75039;BME280;63609;49.992;14.512;2023-10-08T04:10:27;98191.13;;;14.13;58.12
75039;BME280;63609;49.992;14.512;2023-10-08T04:13:16;98193.25;;;14.34;57.77
75039;BME280;63609;49.992;14.512;2023-10-08T04:15:43;98202.34;;;14.25;58.19
75039;BME280;63609;49.992;14.512;2023-10-08T04:18:11;98205.84;;;14.33;58.05
75039;BME280;63609;49.992;14.512;2023-10-08T04:20:40;98211.00;;;14.51;57.87
75039;BME280;63609;49.992;14.512;2023-10-08T04:23:27;98208.84;;;14.46;57.80
75039;BME280;63609;49.992;14.512;2023-10-08T04:25:55;98211.56;;;14.38;57.99
75039;BME280;63609;49.992;14.512;2023-10-08T04:28:23;98206.28;;;14.61;57.32
75039;BME280;63609;49.992;14.512;2023-10-08T04:30:55;98208.16;;;14.53;57.77
75039;BME280;63609;49.992;14.512;2023-10-08T04:33:28;98188.81;;;14.57;57.34
75039;BME280;63609;49.992;14.512;2023-10-08T04:36:01;98207.53;;;14.34;58.30
75039;BME280;63609;49.992;14.512;2023-10-08T04:38:28;98194.63;;;14.38;58.05
75039;BME280;63609;49.992;14.512;2023-10-08T04:40:58;98197.38;;;14.61;57.49
75039;BME280;63609;49.992;14.512;2023-10-08T04:43:35;98208.66;;;14.56;57.65
75039;BME280;63609;49.992;14.512;2023-10-08T04:46:05;98211.63;;;14.61;57.47
75039;BME280;63609;49.992;14.512;2023-10-08T04:48:52;98212.09;;;14.81;56.74
75039;BME280;63609;49.992;14.512;2023-10-08T04:51:19;98205.56;;;14.67;57.48
75039;BME280;63609;49.992;14.512;2023-10-08T04:53:50;98226.25;;;14.59;57.38
75039;BME280;63609;49.992;14.512;2023-10-08T04:56:17;98229.31;;;15.03;56.19
75039;BME280;63609;49.992;14.512;2023-10-08T04:58:46;98234.84;;;15.10;56.09
75039;BME280;63609;49.992;14.512;2023-10-08T05:01:17;98254.56;;;14.86;56.45
75039;BME280;63609;49.992;14.512;2023-10-08T05:03:50;98277.25;;;14.83;56.88
75039;BME280;63609;49.992;14.512;2023-10-08T05:06:25;98279.91;;;14.91;56.76
75039;BME280;63609;49.992;14.512;2023-10-08T05:09:06;98307.81;;;15.37;55.74
75039;BME280;63609;49.992;14.512;2023-10-08T05:11:41;98306.97;;;14.90;56.86
75039;BME280;63609;49.992;14.512;2023-10-08T05:14:23;98318.97;;;14.06;58.31
75039;BME280;63609;49.992;14.512;2023-10-08T05:16:57;98314.94;;;13.94;58.75
75039;BME280;63609;49.992;14.512;2023-10-08T05:19:30;98325.13;;;13.66;59.11
75039;BME280;63609;49.992;14.512;2023-10-08T05:22:08;98325.31;;;13.22;60.52
75039;BME280;63609;49.992;14.512;2023-10-08T05:24:58;98343.88;;;13.15;60.48
75039;BME280;63609;49.992;14.512;2023-10-08T05:27:45;98353.47;;;12.92;60.72
75039;BME280;63609;49.992;14.512;2023-10-08T05:30:22;98358.81;;;12.92;60.46
75039;BME280;63609;49.992;14.512;2023-10-08T05:32:56;98376.22;;;12.88;60.95
75039;BME280;63609;49.992;14.512;2023-10-08T05:35:43;98380.91;;;12.86;61.16
75039;BME280;63609;49.992;14.512;2023-10-08T05:38:15;98378.94;;;12.96;60.64
75039;BME280;63609;49.992;14.512;2023-10-08T05:40:51;98379.88;;;13.13;60.06
75039;BME280;63609;49.992;14.512;2023-10-08T05:46:12;98406.53;;;13.40;59.00
75039;BME280;63609;49.992;14.512;2023-10-08T05:48:54;98393.88;;;13.67;58.31
75039;BME280;63609;49.992;14.512;2023-10-08T05:51:50;98410.00;;;13.75;58.04
75039;BME280;63609;49.992;14.512;2023-10-08T05:54:19;98407.44;;;13.23;60.00
75039;BME280;63609;49.992;14.512;2023-10-08T05:57:07;98437.50;;;13.09;60.08
75039;BME280;63609;49.992;14.512;2023-10-08T05:59:54;98448.63;;;12.96;60.94
75039;BME280;63609;49.992;14.512;2023-10-08T06:02:32;98457.78;;;12.68;62.37
75039;BME280;63609;49.992;14.512;2023-10-08T06:05:09;98467.75;;;12.57;62.92
75039;BME280;63609;49.992;14.512;2023-10-08T06:07:52;98472.03;;;12.33;63.28
75039;BME280;63609;49.992;14.512;2023-10-08T06:13:02;98504.22;;;11.68;64.77
75039;BME280;63609;49.992;14.512;2023-10-08T06:15:45;98518.97;;;11.35;65.71
75039;BME280;63609;49.992;14.512;2023-10-08T06:18:16;98526.84;;;11.46;65.56
75039;BME280;63609;49.992;14.512;2023-10-08T06:20:48;98546.94;;;11.41;64.71
75039;BME280;63609;49.992;14.512;2023-10-08T06:23:17;98562.63;;;10.87;64.85
75039;BME280;63609;49.992;14.512;2023-10-08T06:25:50;98558.69;;;10.53;65.69
75039;BME280;63609;49.992;14.512;2023-10-08T06:28:26;98577.44;;;10.22;67.14
75039;BME280;63609;49.992;14.512;2023-10-08T06:30:55;98587.63;;;10.48;66.18
75039;BME280;63609;49.992;14.512;2023-10-08T06:33:24;98589.25;;;10.29;66.08
75039;BME280;63609;49.992;14.512;2023-10-08T06:35:53;98600.13;;;10.07;67.27
75039;BME280;63609;49.992;14.512;2023-10-08T06:38:33;98595.94;;;9.83;67.39
75039;BME280;63609;49.992;14.512;2023-10-08T06:41:02;98617.94;;;9.76;68.15
75039;BME280;63609;49.992;14.512;2023-10-08T06:43:37;98609.44;;;9.82;67.87
75039;BME280;63609;49.992;14.512;2023-10-08T06:46:05;98607.00;;;9.79;67.34
75039;BME280;63609;49.992;14.512;2023-10-08T06:48:40;98612.88;;;9.73;67.40
75039;BME280;63609;49.992;14.512;2023-10-08T06:51:13;98624.88;;;9.58;68.78
75039;BME280;63609;49.992;14.512;2023-10-08T06:53:40;98631.94;;;9.47;67.69
75039;BME280;63609;49.992;14.512;2023-10-08T06:56:07;98636.22;;;9.60;67.72
75039;BME280;63609;49.992;14.512;2023-10-08T06:58:39;98650.84;;;9.65;68.33
75039;BME280;63609;49.992;14.512;2023-10-08T07:01:06;98662.59;;;10.04;67.75
75039;BME280;63609;49.992;14.512;2023-10-08T07:03:36;98663.66;;;9.92;66.78
75039;BME280;63609;49.992;14.512;2023-10-08T07:06:05;98685.50;;;9.65;67.45
75039;BME280;63609;49.992;14.512;2023-10-08T07:08:52;98690.69;;;10.08;66.70
75039;BME280;63609;49.992;14.512;2023-10-08T07:11:23;98693.75;;;10.25;66.73
75039;BME280;63609;49.992;14.512;2023-10-08T07:13:50;98702.41;;;10.17;67.16
75039;BME280;63609;49.992;14.512;2023-10-08T07:16:17;98689.22;;;10.16;66.95
75039;BME280;63609;49.992;14.512;2023-10-08T07:18:45;98689.94;;;9.97;67.33
75039;BME280;63609;49.992;14.512;2023-10-08T07:21:20;98696.69;;;9.80;67.10
75039;BME280;63609;49.992;14.512;2023-10-08T07:24:06;98715.50;;;9.99;67.19
75039;BME280;63609;49.992;14.512;2023-10-08T07:26:42;98724.66;;;9.86;68.03
75039;BME280;63609;49.992;14.512;2023-10-08T07:29:14;98735.44;;;9.95;67.32
75039;BME280;63609;49.992;14.512;2023-10-08T07:31:45;98729.97;;;10.27;65.90
75039;BME280;63609;49.992;14.512;2023-10-08T07:34:25;98719.41;;;9.95;66.57
75039;BME280;63609;49.992;14.512;2023-10-08T07:36:54;98736.31;;;9.64;68.10
75039;BME280;63609;49.992;14.512;2023-10-08T07:39:22;98749.78;;;9.83;67.20
75039;BME280;63609;49.992;14.512;2023-10-08T07:41:54;98753.41;;;9.29;67.83
75039;BME280;63609;49.992;14.512;2023-10-08T07:44:23;98751.91;;;9.36;68.49
75039;BME280;63609;49.992;14.512;2023-10-08T07:46:51;98766.69;;;9.40;68.73
75039;BME280;63609;49.992;14.512;2023-10-08T07:49:24;98764.78;;;9.63;67.56
75039;BME280;63609;49.992;14.512;2023-10-08T07:51:58;98753.97;;;9.65;67.34
75039;BME280;63609;49.992;14.512;2023-10-08T07:54:26;98774.84;;;9.80;67.36
75039;BME280;63609;49.992;14.512;2023-10-08T07:57:01;98770.91;;;9.43;67.83
75039;BME280;63609;49.992;14.512;2023-10-08T07:59:46;98771.47;;;9.58;67.38
75039;BME280;63609;49.992;14.512;2023-10-08T08:02:15;98768.69;;;9.59;66.74
75039;BME280;63609;49.992;14.512;2023-10-08T08:04:45;98781.94;;;9.38;68.65
75039;BME280;63609;49.992;14.512;2023-10-08T08:07:13;98791.50;;;9.52;68.12
75039;BME280;63609;49.992;14.512;2023-10-08T08:09:51;98793.78;;;9.45;67.46
75039;BME280;63609;49.992;14.512;2023-10-08T08:12:21;98796.44;;;9.57;67.14
75039;BME280;63609;49.992;14.512;2023-10-08T08:14:48;98788.44;;;9.25;67.06
75039;BME280;63609;49.992;14.512;2023-10-08T08:17:17;98793.53;;;9.16;67.35
75039;BME280;63609;49.992;14.512;2023-10-08T08:19:48;98798.75;;;9.07;67.68
75039;BME280;63609;49.992;14.512;2023-10-08T08:22:19;98795.47;;;9.03;68.22
75039;BME280;63609;49.992;14.512;2023-10-08T08:24:58;98807.06;;;9.25;66.67
75039;BME280;63609;49.992;14.512;2023-10-08T08:27:43;98822.63;;;9.51;66.33
75039;BME280;63609;49.992;14.512;2023-10-08T08:30:13;98819.31;;;9.05;67.35
75039;BME280;63609;49.992;14.512;2023-10-08T08:32:44;98816.03;;;9.12;67.63
75039;BME280;63609;49.992;14.512;2023-10-08T08:35:12;98806.00;;;9.16;67.71
75039;BME280;63609;49.992;14.512;2023-10-08T08:37:44;98814.56;;;9.31;66.57
75039;BME280;63609;49.992;14.512;2023-10-08T08:40:13;98832.44;;;9.51;66.60
75039;BME280;63609;49.992;14.512;2023-10-08T08:42:50;98835.13;;;9.40;67.29
75039;BME280;63609;49.992;14.512;2023-10-08T08:45:21;98834.88;;;9.43;66.80
75039;BME280;63609;49.992;14.512;2023-10-08T08:47:48;98834.28;;;9.71;65.49
75039;BME280;63609;49.992;14.512;2023-10-08T08:50:15;98827.00;;;9.85;65.59
75039;BME280;63609;49.992;14.512;2023-10-08T08:52:45;98844.81;;;9.84;65.49
75039;BME280;63609;49.992;14.512;2023-10-08T08:55:14;98853.72;;;9.62;65.23
75039;BME280;63609;49.992;14.512;2023-10-08T08:57:47;98860.91;;;9.94;65.79
75039;BME280;63609;49.992;14.512;2023-10-08T09:00:15;98857.88;;;9.98;64.47
75039;BME280;63609;49.992;14.512;2023-10-08T09:02:47;98863.66;;;10.03;64.27
75039;BME280;63609;49.992;14.512;2023-10-08T09:05:17;98859.47;;;10.22;64.94
75039;BME280;63609;49.992;14.512;2023-10-08T09:08:03;98866.00;;;10.38;63.47
75039;BME280;63609;49.992;14.512;2023-10-08T09:10:32;98887.59;;;9.50;66.22
75039;BME280;63609;49.992;14.512;2023-10-08T09:13:21;98898.00;;;9.54;65.30
75039;BME280;63609;49.992;14.512;2023-10-08T09:15:50;98903.19;;;9.44;65.86
75039;BME280;63609;49.992;14.512;2023-10-08T09:18:21;98913.72;;;9.45;66.56
75039;BME280;63609;49.992;14.512;2023-10-08T09:20:49;98907.56;;;9.99;65.15
75039;BME280;63609;49.992;14.512;2023-10-08T09:23:16;98912.75;;;9.58;64.52
75039;BME280;63609;49.992;14.512;2023-10-08T09:25:49;98915.28;;;9.48;65.54
75039;BME280;63609;49.992;14.512;2023-10-08T09:28:31;98912.91;;;9.99;63.42
75039;BME280;63609;49.992;14.512;2023-10-08T09:31:00;98908.16;;;10.56;61.74
75039;BME280;63609;49.992;14.512;2023-10-08T09:33:28;98916.41;;;10.32;62.90
75039;BME280;63609;49.992;14.512;2023-10-08T09:35:57;98898.84;;;10.29;62.67
75039;BME280;63609;49.992;14.512;2023-10-08T09:38:29;98907.09;;;10.68;62.38
75039;BME280;63609;49.992;14.512;2023-10-08T09:40:59;98924.84;;;10.48;62.69
75039;BME280;63609;49.992;14.512;2023-10-08T09:43:29;98927.44;;;10.06;63.58
75039;BME280;63609;49.992;14.512;2023-10-08T09:46:06;98907.34;;;9.91;63.58
75039;BME280;63609;49.992;14.512;2023-10-08T09:48:37;98917.13;;;10.34;62.20
75039;BME280;63609;49.992;14.512;2023-10-08T09:51:06;98919.53;;;10.37;62.04
75039;BME280;63609;49.992;14.512;2023-10-08T09:53:47;98923.66;;;10.62;62.19
75039;BME280;63609;49.992;14.512;2023-10-08T09:56:19;98932.03;;;10.04;63.31
75039;BME280;63609;49.992;14.512;2023-10-08T09:58:46;98918.63;;;10.27;61.79
75039;BME280;63609;49.992;14.512;2023-10-08T10:01:18;98920.66;;;10.55;62.03
75039;BME280;63609;49.992;14.512;2023-10-08T10:03:55;98914.06;;;10.59;61.26
75039;BME280;63609;49.992;14.512;2023-10-08T10:06:22;98916.75;;;10.59;61.56
75039;BME280;63609;49.992;14.512;2023-10-08T10:08:49;98912.38;;;10.79;59.86
75039;BME280;63609;49.992;14.512;2023-10-08T10:11:16;98933.41;;;10.72;60.03
75039;BME280;63609;49.992;14.512;2023-10-08T10:13:45;98941.06;;;10.24;61.55
75039;BME280;63609;49.992;14.512;2023-10-08T10:16:21;98946.50;;;10.75;60.54
75039;BME280;63609;49.992;14.512;2023-10-08T10:18:56;98951.56;;;10.37;62.08
75039;BME280;63609;49.992;14.512;2023-10-08T10:23:55;98920.63;;;10.76;60.86
75039;BME280;63609;49.992;14.512;2023-10-08T10:26:31;98918.16;;;10.84;59.91
75039;BME280;63609;49.992;14.512;2023-10-08T10:31:50;98943.50;;;10.69;59.82
75039;BME280;63609;49.992;14.512;2023-10-08T10:34:28;98965.84;;;10.68;60.63
75039;BME280;63609;49.992;14.512;2023-10-08T10:36:59;98974.78;;;10.25;61.93
75039;BME280;63609;49.992;14.512;2023-10-08T10:39:31;98967.53;;;10.69;60.82
75039;BME280;63609;49.992;14.512;2023-10-08T10:42:01;98972.00;;;10.27;61.63
75039;BME280;63609;49.992;14.512;2023-10-08T10:44:29;98977.38;;;10.89;61.61
75039;BME280;63609;49.992;14.512;2023-10-08T10:46:57;98974.13;;;10.65;60.43
75039;BME280;63609;49.992;14.512;2023-10-08T10:49:52;98967.47;;;10.59;61.07
75039;BME280;63609;49.992;14.512;2023-10-08T10:52:33;98960.13;;;10.93;58.54
75039;BME280;63609;49.992;14.512;2023-10-08T10:55:20;98970.88;;;10.82;58.68
75039;BME280;63609;49.992;14.512;2023-10-08T10:57:58;98969.47;;;11.29;58.83
75039;BME280;63609;49.992;14.512;2023-10-08T11:00:41;98962.75;;;11.35;57.55
75039;BME280;63609;49.992;14.512;2023-10-08T11:03:10;98972.22;;;10.97;58.94
75039;BME280;63609;49.992;14.512;2023-10-08T11:05:57;98975.94;;;11.06;59.05
75039;BME280;63609;49.992;14.512;2023-10-08T11:08:41;98974.34;;;11.45;58.47
75039;BME280;63609;49.992;14.512;2023-10-08T11:11:13;98982.09;;;11.48;58.27
75039;BME280;63609;49.992;14.512;2023-10-08T11:13:44;98983.56;;;11.72;57.22
75039;BME280;63609;49.992;14.512;2023-10-08T11:16:23;98975.50;;;11.52;57.02
75039;BME280;63609;49.992;14.512;2023-10-08T11:18:50;98978.44;;;11.99;56.69
75039;BME280;63609;49.992;14.512;2023-10-08T11:21:17;98973.06;;;11.99;56.57
75039;BME280;63609;49.992;14.512;2023-10-08T11:23:52;98967.47;;;11.22;57.52
75039;BME280;63609;49.992;14.512;2023-10-08T11:26:23;98971.72;;;11.64;56.37
75039;BME280;63609;49.992;14.512;2023-10-08T11:29:02;98968.09;;;11.75;55.96
75039;BME280;63609;49.992;14.512;2023-10-08T11:31:32;98966.09;;;11.67;55.57
75039;BME280;63609;49.992;14.512;2023-10-08T11:34:03;98960.88;;;11.66;55.82
75039;BME280;63609;49.992;14.512;2023-10-08T11:36:40;98957.06;;;12.09;54.10
75039;BME280;63609;49.992;14.512;2023-10-08T11:39:20;98950.97;;;12.07;54.58
75039;BME280;63609;49.992;14.512;2023-10-08T11:41:59;98953.78;;;11.86;55.77
75039;BME280;63609;49.992;14.512;2023-10-08T11:44:31;98958.22;;;12.45;51.71
75039;BME280;63609;49.992;14.512;2023-10-08T11:47:05;98964.00;;;12.50;50.71
75039;BME280;63609;49.992;14.512;2023-10-08T11:49:40;98954.84;;;12.52;50.66
75039;BME280;63609;49.992;14.512;2023-10-08T11:52:15;98958.38;;;12.43;50.04
75039;BME280;63609;49.992;14.512;2023-10-08T11:54:43;98957.00;;;12.96;50.95
75039;BME280;63609;49.992;14.512;2023-10-08T11:57:10;98958.44;;;13.46;50.00
75039;BME280;63609;49.992;14.512;2023-10-08T11:59:38;98957.63;;;13.36;49.96
75039;BME280;63609;49.992;14.512;2023-10-08T12:02:06;98956.63;;;12.71;50.64
75039;BME280;63609;49.992;14.512;2023-10-08T12:04:35;98958.06;;;12.66;48.86
75039;BME280;63609;49.992;14.512;2023-10-08T12:07:03;98959.25;;;13.10;48.60
75039;BME280;63609;49.992;14.512;2023-10-08T12:09:36;98963.72;;;13.29;46.68
75039;BME280;63609;49.992;14.512;2023-10-08T12:12:06;98951.78;;;13.04;47.93
75039;BME280;63609;49.992;14.512;2023-10-08T12:14:36;98969.97;;;11.94;51.41
75039;BME280;63609;49.992;14.512;2023-10-08T12:17:05;98971.69;;;11.55;53.80
75039;BME280;63609;49.992;14.512;2023-10-08T12:19:39;98965.16;;;11.38;52.38
75039;BME280;63609;49.992;14.512;2023-10-08T12:22:09;98972.56;;;11.65;51.51
75039;BME280;63609;49.992;14.512;2023-10-08T12:24:41;98974.31;;;12.45;52.22
75039;BME280;63609;49.992;14.512;2023-10-08T12:27:09;98969.50;;;12.58;49.83
75039;BME280;63609;49.992;14.512;2023-10-08T12:29:39;98970.84;;;12.91;48.86
75039;BME280;63609;49.992;14.512;2023-10-08T12:32:06;98974.84;;;13.43;47.06
75039;BME280;63609;49.992;14.512;2023-10-08T12:34:44;98983.19;;;12.45;49.73
75039;BME280;63609;49.992;14.512;2023-10-08T12:37:11;98973.03;;;13.34;47.30
75039;BME280;63609;49.992;14.512;2023-10-08T12:39:42;98965.09;;;12.67;48.34
75039;BME280;63609;49.992;14.512;2023-10-08T12:42:27;98974.50;;;13.09;47.24
75039;BME280;63609;49.992;14.512;2023-10-08T12:44:54;98972.66;;;13.10;47.52
75039;BME280;63609;49.992;14.512;2023-10-08T12:47:24;98962.00;;;13.37;46.90
75039;BME280;63609;49.992;14.512;2023-10-08T12:49:56;98963.56;;;13.40;47.53
75039;BME280;63609;49.992;14.512;2023-10-08T12:52:24;98964.25;;;13.42;46.91
75039;BME280;63609;49.992;14.512;2023-10-08T12:54:55;98972.41;;;12.93;48.06
75039;BME280;63609;49.992;14.512;2023-10-08T12:57:25;98976.47;;;12.01;49.80
75039;BME280;63609;49.992;14.512;2023-10-08T13:00:00;98957.66;;;12.41;48.80
75039;BME280;63609;49.992;14.512;2023-10-08T13:02:29;98962.00;;;12.33;50.35
75039;BME280;63609;49.992;14.512;2023-10-08T13:04:56;98962.84;;;11.64;49.59
75039;BME280;63609;49.992;14.512;2023-10-08T13:07:25;98964.75;;;11.92;49.32
75039;BME280;63609;49.992;14.512;2023-10-08T13:09:55;98970.09;;;11.92;48.98
75039;BME280;63609;49.992;14.512;2023-10-08T13:12:22;98974.41;;;11.64;49.34
75039;BME280;63609;49.992;14.512;2023-10-08T13:14:49;98965.16;;;11.78;48.56
75039;BME280;63609;49.992;14.512;2023-10-08T13:17:16;98967.09;;;12.16;47.72
75039;BME280;63609;49.992;14.512;2023-10-08T13:19:43;98958.84;;;11.79;48.81
75039;BME280;63609;49.992;14.512;2023-10-08T13:22:13;98972.84;;;12.41;48.32
75039;BME280;63609;49.992;14.512;2023-10-08T13:24:46;98964.31;;;13.22;46.58
75039;BME280;63609;49.992;14.512;2023-10-08T13:27:15;98965.66;;;13.73;45.48
75039;BME280;63609;49.992;14.512;2023-10-08T13:29:46;98978.03;;;14.65;43.79
75039;BME280;63609;49.992;14.512;2023-10-08T13:32:13;98974.63;;;14.09;43.75
75039;BME280;63609;49.992;14.512;2023-10-08T13:34:44;98970.03;;;13.74;46.21